DIAP Airport Information

Runway Information
Runway 03 Length 9843 ft width 164 ft
Elevation 21 ft Threshold 0 ft Heading 23
Runway 21 Length 9843 ft Width 164 ft
Elevation 11 ft Threshold 0 ft Heading 203
Airport Frequencies
Type A/G Name RDO Frequency 568 MHZ
Type ACC Name CON Frequency 121.1 MHZ
Type AFIS Name INFO Frequency 129.1 MHZ
Type ATIS Name ATIS Frequency 126.6 MHZ
Type MISC Name VHF/DF Frequency 118.1 MHZ
Type TWR Name TWR Frequency 118.1 MHZ
Airport Navaids
Type VOR-DME Name Abidjan Frequency 114300 KHZ
Type NDB Name Abidjan Frequency 306 KHZ
Type NDB Name Abidjan Felix Houphouet Boigny Frequency 294 KHZ
Airport Weather Information & NOTAM
ADDS - METARS form results

(0928 UTC 25 January 2021)
Data provider http://aviationweather.gov/metar/data/
 
METAR text: DIAP 250900Z 04005KT 6000 SCT011 BKN020 26/26 Q1011 NOSIG
Conditions at: DIAP (ABIDJAN/PORT BOU, CI) observed 0900 UTC 25 January 2021
Temperature: 26.0°C (79°F)
Dewpoint: 26.0°C (79°F) [RH = 100%]
Pressure (altimeter): 29.85 inches Hg (1011.0 mb)
Winds: from the NE (40 degrees) at 6 MPH (5 knots; 2.6 m/s)
Visibility: 4 miles ( 6 km)
Ceiling: 2000 feet AGL
Clouds: scattered clouds at 1100 feet AGL
broken clouds at 2000 feet AGL
Weather: no significant weather observed at this time

METAR text: DIAP 250830Z 06003KT 020V080 6000 SCT011 BKN020 26/26 Q1011 NOSIG
Conditions at: DIAP (ABIDJAN/PORT BOU, CI) observed 0830 UTC 25 January 2021
Temperature: 26.0°C (79°F)
Dewpoint: 26.0°C (79°F) [RH = 100%]
Pressure (altimeter): 29.85 inches Hg (1011.0 mb)
Winds: from the ENE (60 degrees) at 3 MPH (3 knots; 1.5 m/s)
Visibility: 4 miles ( 6 km)
Ceiling: 2000 feet AGL
Clouds: scattered clouds at 1100 feet AGL
broken clouds at 2000 feet AGL
Weather: no significant weather observed at this time

Forecast for: DIAP (ABIDJAN/PORT BOU, CI)
Text: TAF DIAP 250500Z 2506/2612 29001KT 6000 FEW020
Forecast period: 0600 to 1200 UTC 25 January 2021
Forecast type: FROM: standard forecast or significant change
Winds: from the WNW (290 degrees) at 1 MPH (1 knots; 0.5 m/s)
Visibility: 4 miles (6 km)
Ceiling: at least 12,000 feet AGL
Clouds: few clouds at 2000 feet AGL
Weather: no significant weather forecast for this period
Text: PROB30
Forecast period: 0600 to 0900 UTC 25 January 2021
Forecast type: TEMPORARY: The following changes expected for less than half the time period
Visibility: 1.24 miles (2.00 km)
Ceiling: unknown
Clouds: missing
Weather: BR  (mist)
Text: TEMPO 2506/2509 2000 BR
Forecast period: 1200 UTC 25 January 2021 to 1200 UTC 26 January 2021
Forecast type: BECOMING: Conditions expected to become as follows by 1400 UTC 25 January 2021
Winds: from the SSW (210 degrees) at 12 MPH (10 knots; 5.1 m/s)
Visibility: 4 miles (7 km)
Ceiling: at least 12,000 feet AGL
Clouds: few clouds at 2000 feet AGL
Weather: no significant weather forecast for this period